Time;durP1;ratioP1;P1;durP2;ratioP2;P2;SDS_P1;SDS_P2;PMS_P1;PMS_P2;Temp;Humidity;BMP_temperature;BMP_pressure;BME280_temperature;BME280_humidity;BME280_pressure;Samples;Min_cycle;Max_cycle;Signal;HPM_P1;HPM_P2
2022/06/13 00:00:54;;;;;;;1.90;1.80;;;18.00;99.90;;;;;;5056072;28;20626;-47
2022/06/13 00:03:21;;;;;;;2.00;1.80;;;18.10;99.90;;;;;;5057500;28;20622;-48
2022/06/13 00:05:49;;;;;;;1.70;1.70;;;18.00;99.90;;;;;;5054544;28;20660;-48
2022/06/13 00:08:16;;;;;;;2.10;1.70;;;18.00;99.90;;;;;;5065947;28;20292;-47
2022/06/13 00:10:43;;;;;;;2.10;2.00;;;18.00;99.90;;;;;;5058853;28;20253;-47
2022/06/13 00:13:11;;;;;;;1.93;1.70;;;18.00;99.90;;;;;;5065462;28;20663;-47
2022/06/13 00:15:38;;;;;;;1.83;1.73;;;18.00;99.90;;;;;;5063819;28;20201;-47
2022/06/13 00:18:06;;;;;;;2.00;1.83;;;18.00;99.90;;;;;;5059143;28;20197;-47
2022/06/13 00:20:33;;;;;;;1.70;1.50;;;18.00;99.90;;;;;;5053375;28;20202;-46
2022/06/13 00:23:00;;;;;;;2.20;2.10;;;17.90;99.90;;;;;;5057476;28;20260;-47
2022/06/13 00:25:28;;;;;;;2.80;2.70;;;18.00;99.90;;;;;;5067767;28;20270;-47
2022/06/13 00:27:55;;;;;;;2.00;1.90;;;17.90;99.90;;;;;;5053829;28;20218;-47
2022/06/13 00:30:24;;;;;;;1.60;1.60;;;17.90;99.90;;;;;;5058166;28;20193;-47
2022/06/13 00:32:51;;;;;;;1.83;1.60;;;18.00;99.90;;;;;;5066046;28;20208;-47
2022/06/13 00:35:18;;;;;;;1.83;1.83;;;18.00;99.90;;;;;;5074766;28;20296;-47
2022/06/13 00:37:45;;;;;;;1.73;1.63;;;18.10;99.90;;;;;;5054087;28;20234;-47
2022/06/13 00:40:13;;;;;;;1.63;1.50;;;18.00;99.90;;;;;;5066901;28;20201;-47
2022/06/13 00:42:40;;;;;;;1.80;1.70;;;18.00;99.90;;;;;;5066419;28;20725;-47
2022/06/13 00:45:13;;;;;;;4.63;2.03;;;18.00;99.90;;;;;;5063301;28;20201;-47
2022/06/13 00:47:44;;;;;;;1.73;1.63;;;18.10;99.90;;;;;;5061411;28;20221;-47
2022/06/13 00:50:18;;;;;;;1.80;1.70;;;18.20;99.90;;;;;;5050616;28;20205;-47
2022/06/13 00:52:51;;;;;;;1.90;1.87;;;18.20;99.90;;;;;;5054187;28;20236;-47
2022/06/13 00:55:25;;;;;;;2.47;1.83;;;18.20;99.90;;;;;;5053566;28;20233;-47
2022/06/13 00:57:52;;;;;;;1.60;1.60;;;18.10;99.90;;;;;;5060626;28;20271;-48
2022/06/13 01:00:20;;;;;;;1.63;1.53;;;18.10;99.90;;;;;;5061079;28;20595;-47
2022/06/13 01:02:51;;;;;;;1.90;1.60;;;18.10;99.90;;;;;;5052959;28;20281;-47
2022/06/13 01:05:24;;;;;;;1.87;1.80;;;18.10;99.90;;;;;;5067263;28;20284;-47
2022/06/13 01:07:52;;;;;;;1.93;1.83;;;18.20;99.90;;;;;;5065837;28;20575;-47
2022/06/13 01:13:06;;;;;;;3.50;3.30;;;18.20;99.90;;;;;;5062218;28;20259;-47
2022/06/13 01:16:01;;;;;;;1.57;1.47;;;18.20;99.90;;;;;;5052569;28;20697;-47
2022/06/13 01:18:48;;;;;;;1.97;1.80;;;18.20;99.90;;;;;;5054806;28;20202;-47
2022/06/13 01:21:27;;;;;;;1.90;1.90;;;18.20;99.90;;;;;;5054496;28;20243;-47
2022/06/13 01:24:24;;;;;;;2.53;1.83;;;18.20;99.90;;;;;;5063796;28;20208;-47
2022/06/13 01:27:24;;;;;;;1.70;1.60;;;18.20;99.90;;;;;;5070873;28;20256;-47
2022/06/13 01:29:57;;;;;;;1.93;1.90;;;18.20;99.90;;;;;;5051811;28;20198;-46
2022/06/13 01:32:38;;;;;;;2.37;2.00;;;18.10;99.90;;;;;;5057422;28;20228;-47
2022/06/13 01:35:21;;;;;;;1.90;1.83;;;18.10;99.90;;;;;;5059387;28;20205;-47
2022/06/13 01:38:00;;;;;;;2.63;2.30;;;18.10;99.90;;;;;;5050679;28;20218;-47
2022/06/13 01:40:47;;;;;;;2.60;2.30;;;18.00;99.90;;;;;;5069804;28;20201;-47
2022/06/13 01:43:22;;;;;;;2.30;2.10;;;18.00;99.90;;;;;;5052293;28;20216;-47
2022/06/13 01:45:58;;;;;;;2.10;2.00;;;18.00;99.90;;;;;;5059282;28;20588;-47
2022/06/13 01:48:35;;;;;;;2.30;2.10;;;18.10;99.90;;;;;;5056225;28;20678;-47
2022/06/13 01:51:20;;;;;;;2.23;2.13;;;18.00;99.90;;;;;;5052082;28;20212;-47
2022/06/13 01:53:53;;;;;;;2.23;1.97;;;18.00;99.90;;;;;;5061869;28;20216;-47
2022/06/13 01:56:27;;;;;;;5.07;3.57;;;18.10;99.90;;;;;;5072953;28;20800;-47
2022/06/13 01:59:00;;;;;;;2.73;1.80;;;18.10;99.90;;;;;;5052288;28;20244;-47
2022/06/13 02:01:34;;;;;;;2.00;1.93;;;18.10;99.90;;;;;;5053391;28;20248;-47
2022/06/13 02:04:09;;;;;;;1.80;1.70;;;18.20;99.90;;;;;;5051162;28;20197;-47
2022/06/13 02:06:41;;;;;;;2.50;1.67;;;18.20;99.90;;;;;;5060598;28;20209;-47
2022/06/13 02:09:14;;;;;;;1.77;1.73;;;18.20;99.90;;;;;;5052586;28;20281;-47
2022/06/13 02:11:46;;;;;;;1.60;1.60;;;18.20;99.90;;;;;;5051787;28;20572;-47
2022/06/13 02:14:19;;;;;;;1.30;1.20;;;18.20;99.90;;;;;;5050881;28;20259;-47
2022/06/13 02:16:53;;;;;;;1.67;1.27;;;18.30;99.90;;;;;;5057963;28;20639;-47
2022/06/13 02:19:26;;;;;;;2.73;1.53;;;18.30;99.90;;;;;;5058527;28;20248;-47
2022/06/13 02:21:57;;;;;;;1.70;1.60;;;18.30;99.90;;;;;;5052610;28;20202;-46
2022/06/13 02:24:31;;;;;;;1.50;1.50;;;18.40;99.90;;;;;;5057348;28;20250;-47
2022/06/13 02:27:00;;;;;;;1.40;1.40;;;18.50;99.90;;;;;;5053168;28;20221;-47
2022/06/13 02:29:32;;;;;;;2.47;2.07;;;18.50;99.90;;;;;;5056630;28;20201;-47
2022/06/13 02:32:06;;;;;;;2.03;1.93;;;18.40;99.90;;;;;;5054807;28;20217;-47
2022/06/13 02:34:38;;;;;;;1.97;1.87;;;18.50;99.90;;;;;;5050693;28;20202;-47
2022/06/13 02:37:14;;;;;;;1.90;1.43;;;18.60;99.90;;;;;;5052052;28;20225;-47
2022/06/13 02:39:49;;;;;;;1.23;1.20;;;18.60;99.90;;;;;;5059505;28;20201;-47
2022/06/13 02:42:21;;;;;;;1.70;0.97;;;18.50;99.90;;;;;;5055579;28;20240;-47
2022/06/13 02:44:50;;;;;;;1.30;1.30;;;18.50;99.90;;;;;;5058310;28;20198;-47
2022/06/13 02:47:22;;;;;;;1.40;1.30;;;18.50;99.90;;;;;;5058443;28;20784;-47
2022/06/13 02:49:58;;;;;;;1.23;1.23;;;18.50;99.90;;;;;;5060662;28;20737;-48
2022/06/13 02:52:29;;;;;;;1.60;1.43;;;18.40;99.90;;;;;;5056035;28;20304;-47
2022/06/13 02:54:58;;;;;;;2.80;1.23;;;18.40;99.90;;;;;;5055950;28;20202;-47
2022/06/13 02:57:47;;;;;;;1.90;1.80;;;18.40;99.90;;;;;;5056666;28;20281;-48
2022/06/13 03:00:34;;;;;;;3.13;1.73;;;18.40;99.90;;;;;;5056928;28;20205;-47
2022/06/13 03:03:20;;;;;;;1.73;1.63;;;18.30;99.90;;;;;;5059664;28;20247;-47
2022/06/13 03:05:54;;;;;;;1.57;1.47;;;18.30;99.90;;;;;;5058214;28;20232;-48
2022/06/13 03:08:44;;;;;;;1.40;1.30;;;18.30;99.90;;;;;;5065216;28;20674;-47
2022/06/13 03:11:28;;;;;;;1.63;1.23;;;18.20;99.90;;;;;;5056025;28;20225;-48
2022/06/13 03:14:07;;;;;;;2.10;1.60;;;18.30;99.90;;;;;;5051736;28;20201;-47
2022/06/13 03:16:38;;;;;;;1.53;1.43;;;18.30;99.90;;;;;;5058968;28;20272;-48
2022/06/13 03:19:15;;;;;;;1.73;1.60;;;18.20;99.90;;;;;;5071141;28;20201;-47
2022/06/13 03:21:49;;;;;;;1.60;1.60;;;18.20;99.90;;;;;;5065433;28;20651;-47
2022/06/13 03:24:20;;;;;;;2.47;1.83;;;18.20;99.90;;;;;;5043141;28;20671;-47
2022/06/13 03:26:53;;;;;;;1.37;1.27;;;18.20;99.90;;;;;;5058639;28;20218;-47
2022/06/13 03:29:27;;;;;;;1.70;1.53;;;18.10;99.90;;;;;;5051116;28;20793;-47
2022/06/13 03:31:57;;;;;;;1.67;1.63;;;18.10;99.90;;;;;;5062054;28;20635;-47
2022/06/13 03:34:29;;;;;;;2.43;2.27;;;18.10;99.90;;;;;;5056970;28;20198;-47
2022/06/13 03:37:03;;;;;;;4.20;1.90;;;18.10;99.90;;;;;;5050839;28;20221;-47
2022/06/13 03:39:35;;;;;;;4.00;2.70;;;18.10;99.90;;;;;;5066582;28;20197;-47
2022/06/13 03:42:10;;;;;;;3.17;2.37;;;18.10;99.90;;;;;;5057246;28;20259;-47
2022/06/13 03:44:46;;;;;;;2.53;2.40;;;18.20;99.90;;;;;;5054726;28;20198;-47
2022/06/13 03:47:22;;;;;;;2.03;1.90;;;18.10;99.90;;;;;;5049657;28;20229;-47
2022/06/13 03:49:56;;;;;;;1.93;1.83;;;18.00;99.90;;;;;;5045651;28;20194;-47
2022/06/13 03:52:26;;;;;;;2.93;2.53;;;18.00;99.90;;;;;;5057415;28;20295;-47
2022/06/13 03:54:58;;;;;;;2.27;2.17;;;17.90;99.90;;;;;;5056582;28;20640;-47
2022/06/13 03:57:31;;;;;;;3.77;2.43;;;17.90;99.90;;;;;;5056879;28;20480;-47
2022/06/13 04:00:04;;;;;;;2.60;2.47;;;18.00;99.90;;;;;;5055041;28;20249;-47
2022/06/13 04:02:34;;;;;;;4.30;2.30;;;18.00;99.90;;;;;;5057857;28;20190;-47
2022/06/13 04:05:01;;;;;;;2.30;2.10;;;18.00;99.90;;;;;;5042556;28;20634;-47
2022/06/13 04:07:34;;;;;;;3.07;1.90;;;18.00;99.90;;;;;;5059692;28;20294;-47
2022/06/13 04:10:06;;;;;;;1.90;1.80;;;17.90;99.90;;;;;;5055714;28;22197;-47
2022/06/13 04:12:56;;;;;;;3.33;2.17;;;17.90;99.90;;;;;;5051047;28;20248;-47
2022/06/13 04:15:53;;;;;;;2.43;2.17;;;17.90;99.90;;;;;;5032242;28;20193;-47
2022/06/13 04:18:31;;;;;;;2.70;2.40;;;17.80;99.90;;;;;;5060426;28;20262;-47
2022/06/13 04:21:05;;;;;;;4.77;2.53;;;17.80;99.90;;;;;;5059383;28;20205;-47
2022/06/13 04:23:41;;;;;;;3.13;2.67;;;17.80;99.90;;;;;;5050693;28;20220;-47
2022/06/13 04:26:15;;;;;;;3.17;2.53;;;17.70;99.90;;;;;;5063449;28;20213;-47
2022/06/13 04:28:48;;;;;;;3.23;3.03;;;17.70;99.90;;;;;;5068964;28;20270;-47
2022/06/13 04:31:18;;;;;;;4.10;2.47;;;17.80;99.90;;;;;;5061831;28;20233;-47
2022/06/13 04:33:50;;;;;;;2.97;2.87;;;17.70;99.90;;;;;;5062651;28;20778;-47
2022/06/13 04:36:18;;;;;;;5.40;3.13;;;17.70;99.90;;;;;;5054909;28;20232;-47
2022/06/13 04:38:50;;;;;;;3.40;3.20;;;17.70;99.90;;;;;;5054074;28;20288;-47
2022/06/13 04:41:20;;;;;;;4.30;2.87;;;17.60;99.90;;;;;;5052908;28;20692;-48
2022/06/13 04:43:51;;;;;;;3.13;2.90;;;17.70;99.90;;;;;;5057296;28;20221;-47
2022/06/13 04:46:21;;;;;;;3.07;2.73;;;17.70;99.90;;;;;;5056440;28;20260;-46
2022/06/13 04:48:51;;;;;;;2.60;2.27;;;17.80;99.90;;;;;;5052135;28;20234;-47
2022/06/13 04:51:21;;;;;;;2.70;2.50;;;17.90;99.90;;;;;;5056147;28;20741;-47
2022/06/13 04:53:57;;;;;;;2.67;2.57;;;18.00;99.90;;;;;;5053765;28;20623;-47
2022/06/13 04:56:25;;;;;;;4.53;3.17;;;18.10;99.90;;;;;;5065374;22;21188;-53
2022/06/13 04:58:53;;;;;;;4.37;3.27;;;18.20;99.90;;;;;;5070646;28;20543;-52
2022/06/13 05:01:24;;;;;;;3.00;2.80;;;18.20;99.90;;;;;;5063761;28;20205;-52
2022/06/13 05:03:52;;;;;;;2.60;2.50;;;18.30;99.90;;;;;;5066961;28;20609;-52
2022/06/13 05:06:26;;;;;;;5.67;3.23;;;18.30;99.90;;;;;;5064509;28;20202;-52
2022/06/13 05:08:58;;;;;;;2.97;2.87;;;18.30;99.90;;;;;;5068317;28;20196;-51
2022/06/13 05:11:28;;;;;;;4.50;3.23;;;18.30;99.90;;;;;;5057491;28;20288;-52
2022/06/13 05:14:01;;;;;;;3.27;3.17;;;18.30;99.90;;;;;;5057416;28;20583;-52
2022/06/13 05:16:41;;;;;;;4.20;4.10;;;18.30;99.90;;;;;;5053487;28;20286;-52
2022/06/13 05:19:35;;;;;;;4.17;3.83;;;18.30;99.90;;;;;;5053093;28;20729;-52
2022/06/13 05:22:12;;;;;;;4.13;3.83;;;18.30;99.90;;;;;;5061676;28;20193;-52
2022/06/13 05:25:05;;;;;;;3.53;3.00;;;18.30;99.90;;;;;;5060933;28;20280;-53
2022/06/13 05:27:32;;;;;;;4.20;3.27;;;18.20;99.90;;;;;;5024155;28;20221;-52
2022/06/13 05:29:59;;;;;;;3.77;3.47;;;18.20;99.90;;;;;;5062155;28;20205;-53
2022/06/13 05:32:26;;;;;;;2.80;2.67;;;18.20;99.90;;;;;;5054438;28;20275;-53
2022/06/13 05:34:54;;;;;;;3.40;3.10;;;18.20;99.90;;;;;;5071913;28;20196;-52
2022/06/13 05:37:21;;;;;;;3.33;3.13;;;18.30;99.90;;;;;;5071679;28;20312;-52
2022/06/13 05:39:49;;;;;;;4.40;3.60;;;18.30;99.90;;;;;;5054670;28;20618;-53
2022/06/13 05:42:17;;;;;;;3.90;3.60;;;18.50;99.90;;;;;;5062945;28;20284;-52
2022/06/13 05:44:44;;;;;;;3.00;2.90;;;18.50;99.90;;;;;;5069440;28;20221;-52
2022/06/13 05:47:19;;;;;;;3.37;3.27;;;18.40;99.90;;;;;;5068670;28;20221;-52
2022/06/13 05:49:46;;;;;;;5.20;4.13;;;18.30;99.90;;;;;;5063801;28;20253;-52
2022/06/13 05:52:13;;;;;;;5.73;3.63;;;18.30;99.90;;;;;;5070507;28;20205;-52
2022/06/13 05:54:41;;;;;;;3.30;3.00;;;18.30;99.90;;;;;;5057445;28;20200;-52
2022/06/13 05:57:09;;;;;;;4.43;2.93;;;18.30;99.90;;;;;;5064794;28;20308;-52
2022/06/13 05:59:38;;;;;;;3.43;3.13;;;18.30;99.90;;;;;;5061803;28;20335;-52
2022/06/13 06:02:05;;;;;;;3.57;3.33;;;18.20;99.90;;;;;;5061690;28;20274;-53
2022/06/13 06:04:32;;;;;;;4.03;3.83;;;18.20;99.90;;;;;;5059094;28;20205;-52
2022/06/13 06:06:59;;;;;;;4.03;3.70;;;18.30;99.90;;;;;;5066860;28;20463;-53
2022/06/13 06:09:26;;;;;;;3.53;3.23;;;18.30;99.90;;;;;;5059801;28;20251;-52
2022/06/13 06:11:53;;;;;;;4.00;3.77;;;18.30;99.90;;;;;;5067258;28;20224;-52
2022/06/13 06:14:20;;;;;;;3.00;2.90;;;18.30;99.90;;;;;;5059980;28;20267;-52
2022/06/13 06:16:48;;;;;;;3.90;3.60;;;18.20;99.90;;;;;;5057285;28;20275;-52
2022/06/13 06:19:15;;;;;;;4.30;4.00;;;18.20;99.90;;;;;;5060134;28;20197;-50
2022/06/13 06:21:42;;;;;;;4.77;4.47;;;18.20;99.90;;;;;;5059139;28;20267;-52
2022/06/13 06:24:09;;;;;;;3.60;3.30;;;18.30;99.90;;;;;;5061952;28;20190;-52
2022/06/13 06:26:36;;;;;;;4.73;4.33;;;18.30;99.90;;;;;;5063885;28;20725;-52
2022/06/13 06:29:03;;;;;;;3.27;3.07;;;18.30;99.90;;;;;;5062952;28;20622;-52
2022/06/13 06:31:32;;;;;;;3.37;3.10;;;18.40;99.90;;;;;;5070225;28;20675;-53
2022/06/13 06:34:00;;;;;;;3.27;3.07;;;18.50;99.90;;;;;;5067361;28;20258;-52
2022/06/13 06:36:27;;;;;;;2.73;2.53;;;18.50;99.90;;;;;;5058736;28;20593;-52
2022/06/13 06:38:54;;;;;;;2.70;2.60;;;18.50;99.90;;;;;;5059652;28;20196;-53
2022/06/13 06:41:22;;;;;;;3.13;2.83;;;18.40;99.90;;;;;;5051833;28;20209;-53
2022/06/13 06:43:50;;;;;;;3.67;3.37;;;18.40;99.90;;;;;;5059999;28;20807;-53
2022/06/13 06:46:17;;;;;;;2.77;2.67;;;18.30;99.90;;;;;;5065893;28;20578;-52
2022/06/13 06:48:44;;;;;;;8.53;2.83;;;18.40;99.90;;;;;;5070208;28;20328;-52
2022/06/13 06:51:15;;;;;;;3.13;2.90;;;18.40;99.90;;;;;;5070398;28;20193;-53
2022/06/13 07:01:55;;;;;;;3.00;2.63;;;18.20;99.90;;;;;;5057650;28;20300;-52
2022/06/13 07:04:22;;;;;;;3.27;3.17;;;18.20;99.90;;;;;;5064927;28;20193;-53
2022/06/13 07:06:50;;;;;;;3.27;2.87;;;18.20;99.90;;;;;;5066581;28;20256;-53
2022/06/13 07:09:17;;;;;;;2.53;2.33;;;18.20;99.90;;;;;;5063121;28;20263;-52
2022/06/13 07:11:57;;;;;;;2.63;2.40;;;18.20;99.90;;;;;;5058570;28;20664;-52
2022/06/13 07:14:26;;;;;;;2.13;2.03;;;18.10;99.90;;;;;;5051422;28;20602;-52
2022/06/13 07:16:53;;;;;;;2.83;2.63;;;18.10;99.90;;;;;;5065759;28;20226;-52
2022/06/13 07:19:20;;;;;;;2.77;2.57;;;18.20;99.90;;;;;;5066355;28;20201;-52
2022/06/13 07:21:48;;;;;;;3.03;2.43;;;18.10;99.90;;;;;;5068820;28;20288;-52
2022/06/13 07:24:16;;;;;;;2.60;2.40;;;18.10;99.90;;;;;;5067894;28;20200;-52
2022/06/13 07:26:43;;;;;;;3.37;3.07;;;18.20;99.90;;;;;;5062670;28;20213;-52
2022/06/13 07:29:11;;;;;;;3.77;3.20;;;18.20;99.90;;;;;;5066369;28;20229;-52
2022/06/13 07:31:41;;;;;;;4.03;3.70;;;18.20;99.90;;;;;;5064946;28;20201;-50
2022/06/13 07:34:13;;;;;;;4.50;3.60;;;18.20;99.90;;;;;;5067613;28;20293;-52
2022/06/13 07:36:41;;;;;;;2.72;2.63;;;18.20;99.90;;;;;;5062214;28;20445;-52
2022/06/13 07:39:08;;;;;;;3.33;3.07;;;18.40;99.90;;;;;;5051667;28;20260;-53
2022/06/13 07:41:38;;;;;;;3.05;2.90;;;18.40;99.90;;;;;;5056003;28;20462;-52
2022/06/13 07:44:06;;;;;;;2.90;2.80;;;18.40;99.90;;;;;;5067906;28;20193;-53
2022/06/13 07:46:34;;;;;;;3.47;3.27;;;18.40;99.90;;;;;;5057036;28;20860;-52
2022/06/13 07:49:02;;;;;;;3.30;3.20;;;18.50;99.90;;;;;;5063435;28;20221;-52
2022/06/13 07:51:29;;;;;;;4.30;3.50;;;18.40;99.90;;;;;;5058284;28;20201;-52
2022/06/13 07:53:56;;;;;;;4.73;3.90;;;18.40;99.90;;;;;;5060449;28;20682;-51
2022/06/13 07:56:27;;;;;;;4.07;3.83;;;18.50;99.90;;;;;;5058242;28;20601;-52
2022/06/13 07:58:56;;;;;;;4.47;4.20;;;18.60;99.90;;;;;;5050772;28;20201;-52
2022/06/13 08:01:42;;;;;;;2.93;2.60;;;18.70;99.90;;;;;;5056208;28;20228;-52
2022/06/13 08:04:09;;;;;;;2.60;2.50;;;18.70;99.90;;;;;;5061730;28;20185;-52
2022/06/13 08:06:38;;;;;;;3.10;3.00;;;18.70;99.90;;;;;;5069663;28;20213;-52
2022/06/13 08:09:05;;;;;;;3.40;3.20;;;18.70;99.90;;;;;;5069302;28;20581;-52
2022/06/13 08:11:35;;;;;;;2.47;2.37;;;18.80;99.90;;;;;;5062435;28;20632;-51
2022/06/13 08:14:06;;;;;;;3.03;2.70;;;18.80;99.90;;;;;;5058119;28;20225;-53
2022/06/13 08:16:34;;;;;;;2.67;2.57;;;18.80;99.90;;;;;;5050511;28;20213;-53
2022/06/13 08:19:03;;;;;;;2.87;2.73;;;19.00;99.90;;;;;;5069362;28;20300;-52
2022/06/13 08:21:30;;;;;;;2.13;2.03;;;19.10;99.90;;;;;;5055940;28;20202;-52
2022/06/13 08:23:57;;;;;;;2.23;2.20;;;19.20;99.90;;;;;;5055612;28;20251;-52
2022/06/13 08:26:24;;;;;;;2.60;2.40;;;19.20;99.90;;;;;;5059126;28;20217;-52
2022/06/13 08:28:52;;;;;;;2.80;2.60;;;19.20;99.90;;;;;;5053877;28;20201;-52
2022/06/13 08:31:23;;;;;;;1.67;1.67;;;19.10;99.90;;;;;;5054807;28;20198;-53
2022/06/13 08:33:50;;;;;;;2.10;1.93;;;19.00;99.90;;;;;;5061707;28;20214;-53
2022/06/13 08:36:17;;;;;;;2.27;2.20;;;19.00;99.90;;;;;;5063373;28;20304;-53
2022/06/13 08:38:44;;;;;;;2.23;2.13;;;18.90;99.90;;;;;;5065157;28;20194;-53
2022/06/13 08:41:22;;;;;;;2.20;2.10;;;18.90;99.90;;;;;;5072232;28;20201;-52
2022/06/13 08:44:09;;;;;;;3.63;3.13;;;18.90;99.90;;;;;;5072747;28;20193;-52
2022/06/13 08:46:48;;;;;;;2.90;2.80;;;19.10;99.90;;;;;;5070254;28;20220;-52
2022/06/13 08:49:32;;;;;;;3.00;2.83;;;19.40;99.90;;;;;;5065482;28;20197;-52
2022/06/13 08:52:05;;;;;;;4.13;3.93;;;19.60;99.90;;;;;;5072055;28;20266;-52
2022/06/13 08:54:34;;;;;;;3.77;3.47;;;19.60;99.90;;;;;;5066034;28;20220;-53
2022/06/13 08:57:06;;;;;;;3.20;3.10;;;19.50;99.90;;;;;;5071944;28;20374;-52
2022/06/13 08:59:39;;;;;;;2.87;2.77;;;19.50;99.90;;;;;;5073001;28;20201;-53
2022/06/13 09:02:14;;;;;;;4.30;3.10;;;19.60;99.90;;;;;;5063562;28;20681;-52
2022/06/13 09:04:45;;;;;;;3.43;2.97;;;19.60;99.90;;;;;;5070306;28;20247;-51
2022/06/13 09:07:18;;;;;;;3.67;3.57;;;19.60;99.90;;;;;;5065900;28;20228;-53
2022/06/13 09:09:51;;;;;;;3.80;3.50;;;19.50;99.90;;;;;;5068194;28;20342;-52
2022/06/13 09:12:22;;;;;;;3.83;3.60;;;19.50;99.90;;;;;;5065996;28;20570;-52
2022/06/13 09:14:58;;;;;;;3.60;3.30;;;19.70;99.90;;;;;;5072062;28;20221;-53
2022/06/13 09:17:33;;;;;;;3.93;3.73;;;20.10;99.90;;;;;;5072411;28;20637;-52
2022/06/13 09:20:08;;;;;;;3.33;2.90;;;20.80;99.90;;;;;;5063089;28;20244;-52
2022/06/13 09:22:44;;;;;;;4.33;3.07;;;21.00;99.90;;;;;;5053070;28;20552;-53
2022/06/13 09:25:18;;;;;;;2.70;2.60;;;21.20;99.90;;;;;;5053270;28;20198;-53
2022/06/13 09:27:53;;;;;;;3.60;3.40;;;21.40;99.90;;;;;;5057177;28;20254;-50
2022/06/13 09:30:27;;;;;;;3.30;3.10;;;21.20;99.90;;;;;;5060874;28;20194;-50
2022/06/13 09:32:57;;;;;;;2.13;2.03;;;21.10;99.90;;;;;;5052940;28;20293;-52
2022/06/13 09:35:26;;;;;;;2.30;2.10;;;21.10;99.90;;;;;;5066060;28;20275;-53
2022/06/13 09:38:04;;;;;;;2.67;2.57;;;21.00;99.90;;;;;;5062268;28;20264;-51
2022/06/13 09:40:44;;;;;;;3.17;2.97;;;20.90;99.90;;;;;;5063065;28;20270;-51
2022/06/13 09:43:24;;;;;;;3.17;2.87;;;20.70;99.90;;;;;;5060530;28;20247;-50
2022/06/13 09:45:59;;;;;;;2.70;2.60;;;20.80;99.90;;;;;;5062097;28;20301;-53
2022/06/13 09:48:39;;;;;;;3.37;1.83;;;20.70;99.90;;;;;;5065437;28;20333;-53
2022/06/13 09:51:17;;;;;;;2.10;2.00;;;20.50;99.90;;;;;;5052223;28;20209;-53
2022/06/13 09:53:54;;;;;;;2.70;2.50;;;20.30;99.90;;;;;;5052844;28;20217;-53
2022/06/13 09:56:30;;;;;;;2.43;2.23;;;20.00;99.90;;;;;;5054375;28;20612;-53
2022/06/13 09:59:06;;;;;;;4.67;2.10;;;19.90;99.90;;;;;;5064977;28;20426;-53
2022/06/13 10:01:43;;;;;;;1.87;1.77;;;19.60;99.90;;;;;;5061236;28;20260;-53
2022/06/13 10:04:16;;;;;;;3.23;1.27;;;19.50;99.90;;;;;;5069506;28;20560;-50
2022/06/13 10:06:47;;;;;;;1.50;1.47;;;19.30;99.90;;;;;;5071400;28;20217;-53
2022/06/13 10:09:27;;;;;;;2.07;1.20;;;19.20;99.90;;;;;;5062090;28;20201;-50
2022/06/13 10:12:01;;;;;;;1.80;1.77;;;19.30;99.90;;;;;;5061259;28;20201;-53
2022/06/13 10:14:46;;;;;;;2.53;1.80;;;19.50;99.90;;;;;;5060046;28;20312;-53
2022/06/13 10:17:34;;;;;;;2.27;2.00;;;20.00;99.90;;;;;;5063810;28;20358;-53
2022/06/13 10:20:10;;;;;;;2.47;2.07;;;20.90;99.90;;;;;;5060229;28;20655;-52
2022/06/13 10:22:45;;;;;;;2.20;1.80;;;21.30;99.90;;;;;;5056576;28;20221;-53
2022/06/13 10:25:24;;;;;;;1.73;1.63;;;21.40;99.90;;;;;;5051414;28;20190;-53
2022/06/13 10:28:02;;;;;;;1.73;1.20;;;21.20;99.90;;;;;;5060607;28;20294;-53
2022/06/13 10:30:42;;;;;;;3.93;1.13;;;21.10;99.90;;;;;;5062957;28;20198;-53
2022/06/13 10:33:49;;;;;;;1.70;1.60;;;20.80;99.90;;;;;;5051494;28;20736;-51
2022/06/13 10:36:26;;;;;;;1.30;1.20;;;20.70;99.90;;;;;;4989797;28;20215;-51
2022/06/13 10:39:05;;;;;;;2.97;1.40;;;20.50;99.90;;;;;;4987166;28;20214;-51
2022/06/13 10:41:36;;;;;;;0.90;0.90;;;20.40;99.90;;;;;;5034784;28;20201;-50
2022/06/13 10:44:07;;;;;;;1.13;1.10;;;20.40;99.90;;;;;;5059033;28;20198;-53
2022/06/13 10:46:34;;;;;;;1.70;1.57;;;20.60;99.90;;;;;;5065910;28;20221;-53
2022/06/13 10:49:06;;;;;;;1.43;1.37;;;21.20;99.90;;;;;;5067947;28;20274;-53
2022/06/13 10:51:35;;;;;;;2.57;1.80;;;21.60;99.90;;;;;;5064337;28;20205;-53
2022/06/13 10:54:07;;;;;;;1.40;1.33;;;21.60;99.90;;;;;;5070938;28;20227;-53
2022/06/13 10:56:39;;;;;;;1.70;1.23;;;21.60;99.90;;;;;;5058303;28;20287;-53
2022/06/13 10:59:06;;;;;;;2.47;1.00;;;21.70;99.90;;;;;;5072879;22;20230;-48
2022/06/13 11:01:33;;;;;;;1.70;1.60;;;21.80;99.90;;;;;;5041302;28;20236;-48
2022/06/13 11:04:03;;;;;;;1.27;1.03;;;21.80;99.90;;;;;;5051828;28;20225;-48
2022/06/13 11:06:38;;;;;;;3.13;1.33;;;21.90;99.90;;;;;;5051793;28;20568;-48
2022/06/13 11:09:19;;;;;;;1.30;1.30;;;21.80;99.90;;;;;;5050221;28;20594;-48
2022/06/13 11:11:47;;;;;;;1.23;1.23;;;21.90;99.90;;;;;;5042436;28;20730;-48
2022/06/13 11:14:28;;;;;;;1.60;1.50;;;22.20;99.90;;;;;;5051468;28;20219;-48
2022/06/13 11:22:41;;;;;;;1.60;1.50;;;22.40;99.90;;;;;;5031444;28;20752;-48
2022/06/13 11:25:27;;;;;;;2.10;1.73;;;22.50;99.90;;;;;;5034872;28;20201;-47
2022/06/13 11:28:04;;;;;;;3.23;1.77;;;22.50;99.90;;;;;;5050796;28;20225;-48
2022/06/13 11:30:45;;;;;;;2.10;1.60;;;22.40;99.90;;;;;;5042796;28;20244;-48
2022/06/13 11:33:27;;;;;;;1.67;1.57;;;22.50;99.90;;;;;;5051473;28;20232;-48
2022/06/13 11:35:58;;;;;;;2.50;1.57;;;22.40;99.90;;;;;;5051589;28;20225;-48
2022/06/13 11:38:29;;;;;;;4.13;2.10;;;22.40;99.90;;;;;;5044959;28;20222;-48
2022/06/13 11:41:05;;;;;;;5.23;2.23;;;22.40;99.90;;;;;;5049455;28;20217;-48
2022/06/13 11:43:36;;;;;;;2.97;2.20;;;22.60;99.90;;;;;;5036709;28;20213;-49
2022/06/13 11:46:07;;;;;;;2.70;2.50;;;22.90;99.90;;;;;;5031767;28;20194;-48
2022/06/13 11:48:35;;;;;;;6.40;2.20;;;22.90;99.90;;;;;;5049710;28;20217;-49
2022/06/13 11:51:06;;;;;;;1.80;1.70;;;23.00;99.90;;;;;;5051206;28;20220;-48
2022/06/13 11:53:41;;;;;;;2.73;2.53;;;23.30;99.90;;;;;;5050773;28;20210;-48
2022/06/13 11:56:12;;;;;;;2.23;2.00;;;23.30;99.90;;;;;;5041431;28;20222;-48
2022/06/13 11:58:43;;;;;;;2.47;2.27;;;23.10;99.90;;;;;;5037584;28;20224;-48
2022/06/13 12:01:29;;;;;;;3.37;2.17;;;23.20;99.90;;;;;;5040940;28;20268;-48
2022/06/13 12:04:06;;;;;;;4.60;1.90;;;23.10;99.90;;;;;;5035119;28;20198;-48
2022/06/13 12:06:36;;;;;;;6.63;2.60;;;23.30;99.90;;;;;;5042385;28;20688;-48
2022/06/13 12:09:14;;;;;;;2.57;2.37;;;23.30;99.90;;;;;;5044792;28;20222;-48
2022/06/13 12:11:47;;;;;;;3.13;2.17;;;23.40;99.90;;;;;;5043822;28;20609;-48
2022/06/13 12:14:15;;;;;;;2.67;1.70;;;23.40;99.90;;;;;;5042385;28;20201;-48
2022/06/13 12:16:50;;;;;;;2.53;2.30;;;23.20;99.90;;;;;;5036984;28;20207;-48
2022/06/13 12:19:32;;;;;;;2.57;2.27;;;23.20;99.90;;;;;;5034465;28;20216;-48
2022/06/13 12:22:06;;;;;;;1.87;1.77;;;23.10;99.90;;;;;;5034280;28;20202;-49
2022/06/13 12:24:48;;;;;;;2.13;1.67;;;23.50;99.90;;;;;;5043438;28;20233;-48
2022/06/13 12:27:27;;;;;;;3.00;2.10;;;23.80;99.90;;;;;;5044568;28;20202;-48
2022/06/13 12:30:19;;;;;;;4.87;1.93;;;23.80;99.90;;;;;;5043759;28;20225;-48
2022/06/13 12:32:52;;;;;;;2.00;1.90;;;23.80;99.90;;;;;;5044598;28;20232;-48
2022/06/13 12:35:40;;;;;;;1.67;1.50;;;23.80;99.90;;;;;;5054050;28;20318;-48
2022/06/13 12:38:20;;;;;;;2.37;2.17;;;24.00;99.90;;;;;;5054416;28;20232;-48
2022/06/13 12:40:58;;;;;;;1.40;1.40;;;24.10;99.90;;;;;;5051962;28;20198;-48
2022/06/13 12:43:58;;;;;;;2.30;2.03;;;24.00;99.90;;;;;;5035205;28;20234;-48
2022/06/13 12:46:37;;;;;;;2.67;1.70;;;23.80;99.90;;;;;;5034806;28;20195;-48
2022/06/13 12:49:18;;;;;;;2.53;1.90;;;23.60;99.90;;;;;;5034351;28;20222;-48
2022/06/13 12:51:56;;;;;;;2.37;2.17;;;23.80;99.90;;;;;;5049538;28;20259;-49
2022/06/13 12:54:49;;;;;;;4.00;1.77;;;23.70;99.90;;;;;;5054351;28;20292;-48
2022/06/13 12:57:44;;;;;;;1.40;1.30;;;23.60;99.90;;;;;;5053401;28;20201;-48
2022/06/13 13:00:17;;;;;;;2.20;1.43;;;23.70;99.90;;;;;;5051714;28;20595;-48
2022/06/13 13:03:15;;;;;;;1.50;1.43;;;23.70;99.90;;;;;;5053936;28;20209;-48
2022/06/13 13:05:51;;;;;;;1.80;1.70;;;23.80;99.90;;;;;;5048714;28;20922;-48
2022/06/13 13:08:31;;;;;;;2.23;1.33;;;23.80;99.90;;;;;;5048977;28;20225;-49
2022/06/13 13:11:16;;;;;;;2.13;2.03;;;23.80;99.90;;;;;;5034620;28;20285;-48
2022/06/13 13:13:51;;;;;;;1.93;1.47;;;23.70;99.90;;;;;;5035750;28;20209;-48
2022/06/13 13:16:34;;;;;;;2.70;1.57;;;23.40;99.90;;;;;;5045683;28;20699;-48
2022/06/13 13:19:26;;;;;;;2.93;1.53;;;23.40;99.90;;;;;;5052345;28;20725;-48
2022/06/13 13:21:57;;;;;;;3.23;1.90;;;23.40;99.90;;;;;;5053316;28;20219;-49
2022/06/13 13:24:40;;;;;;;2.83;2.43;;;23.10;99.90;;;;;;5053083;28;20293;-49
2022/06/13 13:27:10;;;;;;;2.03;1.70;;;23.00;99.90;;;;;;5042061;28;20195;-49
2022/06/13 13:29:49;;;;;;;1.93;1.83;;;23.00;99.90;;;;;;5033602;28;20202;-48
2022/06/13 13:32:28;;;;;;;1.80;1.70;;;23.10;99.90;;;;;;5037648;28;20208;-48
2022/06/13 13:35:09;;;;;;;2.73;2.63;;;23.20;99.90;;;;;;5048733;28;20225;-48
2022/06/13 13:37:41;;;;;;;4.00;2.20;;;23.00;99.90;;;;;;5039681;28;20260;-48